sensor_id;sensor_type;location;lat;lon;timestamp;pressure;altitude;pressure_sealevel;temperature;humidity
4590;BME280;2307;48.448;9.216;2023-04-21T00:01:19;95023.84;;;5.60;100.00
4590;BME280;2307;48.448;9.216;2023-04-21T00:03:46;95034.03;;;5.68;100.00
4590;BME280;2307;48.448;9.216;2023-04-21T00:06:12;95030.75;;;5.79;100.00
4590;BME280;2307;48.448;9.216;2023-04-21T00:08:46;95026.84;;;5.63;100.00
4590;BME280;2307;48.448;9.216;2023-04-21T00:11:12;95029.84;;;5.67;100.00
4590;BME280;2307;48.448;9.216;2023-04-21T00:13:41;95032.88;;;5.64;100.00
4590;BME280;2307;48.448;9.216;2023-04-21T00:16:07;95034.22;;;5.48;100.00
4590;BME280;2307;48.448;9.216;2023-04-21T00:18:34;95025.75;;;5.46;100.00
4590;BME280;2307;48.448;9.216;2023-04-21T00:21:00;95022.84;;;5.61;100.00
4590;BME280;2307;48.448;9.216;2023-04-21T00:23:27;95016.88;;;5.47;100.00
4590;BME280;2307;48.448;9.216;2023-04-21T00:25:53;95012.03;;;5.51;100.00
4590;BME280;2307;48.448;9.216;2023-04-21T00:28:19;95009.66;;;5.43;100.00
4590;BME280;2307;48.448;9.216;2023-04-21T00:30:47;95008.09;;;5.35;100.00
4590;BME280;2307;48.448;9.216;2023-04-21T00:33:13;95005.94;;;5.25;100.00
4590;BME280;2307;48.448;9.216;2023-04-21T00:35:40;95013.19;;;5.23;100.00
4590;BME280;2307;48.448;9.216;2023-04-21T00:38:06;95007.59;;;5.20;100.00
4590;BME280;2307;48.448;9.216;2023-04-21T00:40:33;95004.91;;;5.26;100.00
4590;BME280;2307;48.448;9.216;2023-04-21T00:42:59;95005.34;;;5.23;100.00
4590;BME280;2307;48.448;9.216;2023-04-21T00:45:25;94993.94;;;5.11;100.00
4590;BME280;2307;48.448;9.216;2023-04-21T00:47:53;95001.25;;;5.03;100.00
4590;BME280;2307;48.448;9.216;2023-04-21T00:50:19;94995.69;;;4.86;100.00
4590;BME280;2307;48.448;9.216;2023-04-21T00:52:46;94995.47;;;4.94;100.00
4590;BME280;2307;48.448;9.216;2023-04-21T00:55:13;94985.03;;;4.88;100.00
4590;BME280;2307;48.448;9.216;2023-04-21T00:57:39;94983.88;;;4.77;100.00
4590;BME280;2307;48.448;9.216;2023-04-21T01:00:06;94992.72;;;4.76;100.00
4590;BME280;2307;48.448;9.216;2023-04-21T01:02:34;94988.94;;;4.72;100.00
4590;BME280;2307;48.448;9.216;2023-04-21T01:05:04;94980.44;;;4.76;100.00
4590;BME280;2307;48.448;9.216;2023-04-21T01:07:33;94977.00;;;4.82;100.00
4590;BME280;2307;48.448;9.216;2023-04-21T01:09:59;94982.19;;;4.89;100.00
4590;BME280;2307;48.448;9.216;2023-04-21T01:12:25;94982.19;;;4.89;100.00
4590;BME280;2307;48.448;9.216;2023-04-21T01:14:52;94981.06;;;4.78;100.00
4590;BME280;2307;48.448;9.216;2023-04-21T01:17:18;94979.06;;;4.74;100.00
4590;BME280;2307;48.448;9.216;2023-04-21T01:19:44;94974.31;;;4.58;100.00
4590;BME280;2307;48.448;9.216;2023-04-21T01:22:13;94973.88;;;4.61;100.00
4590;BME280;2307;48.448;9.216;2023-04-21T01:24:41;94971.47;;;4.66;100.00
4590;BME280;2307;48.448;9.216;2023-04-21T01:27:08;94977.06;;;4.69;100.00
4590;BME280;2307;48.448;9.216;2023-04-21T01:29:34;94975.03;;;4.78;100.00
4590;BME280;2307;48.448;9.216;2023-04-21T01:32:05;94985.81;;;4.50;100.00
4590;BME280;2307;48.448;9.216;2023-04-21T01:34:32;94980.81;;;4.36;100.00
4590;BME280;2307;48.448;9.216;2023-04-21T01:36:58;94983.78;;;4.52;100.00
4590;BME280;2307;48.448;9.216;2023-04-21T01:39:26;94978.56;;;4.46;100.00
4590;BME280;2307;48.448;9.216;2023-04-21T01:41:53;94974.53;;;4.50;100.00
4590;BME280;2307;48.448;9.216;2023-04-21T01:44:22;94972.34;;;4.47;100.00
4590;BME280;2307;48.448;9.216;2023-04-21T01:46:48;94987.69;;;4.23;100.00
4590;BME280;2307;48.448;9.216;2023-04-21T01:49:15;94989.16;;;4.00;100.00
4590;BME280;2307;48.448;9.216;2023-04-21T01:51:42;94992.00;;;3.85;100.00
4590;BME280;2307;48.448;9.216;2023-04-21T01:54:08;94984.13;;;4.05;100.00
4590;BME280;2307;48.448;9.216;2023-04-21T01:56:36;94982.06;;;4.20;100.00
4590;BME280;2307;48.448;9.216;2023-04-21T01:59:02;94981.28;;;4.06;100.00
4590;BME280;2307;48.448;9.216;2023-04-21T02:01:29;94974.47;;;4.18;100.00
4590;BME280;2307;48.448;9.216;2023-04-21T02:03:55;94986.09;;;4.22;100.00
4590;BME280;2307;48.448;9.216;2023-04-21T02:06:21;94982.47;;;4.23;100.00
4590;BME280;2307;48.448;9.216;2023-04-21T02:08:48;94980.44;;;4.32;100.00
4590;BME280;2307;48.448;9.216;2023-04-21T02:11:14;94994.53;;;4.24;100.00
4590;BME280;2307;48.448;9.216;2023-04-21T02:13:42;94983.69;;;4.27;100.00
4590;BME280;2307;48.448;9.216;2023-04-21T02:16:08;94990.50;;;4.22;100.00
4590;BME280;2307;48.448;9.216;2023-04-21T02:18:34;94989.53;;;4.10;100.00
4590;BME280;2307;48.448;9.216;2023-04-21T02:21:04;94991.94;;;4.18;100.00
4590;BME280;2307;48.448;9.216;2023-04-21T02:23:31;94994.59;;;4.05;100.00
4590;BME280;2307;48.448;9.216;2023-04-21T02:25:57;95000.81;;;3.84;100.00
4590;BME280;2307;48.448;9.216;2023-04-21T02:28:24;95003.66;;;3.83;100.00
4590;BME280;2307;48.448;9.216;2023-04-21T02:30:51;94999.25;;;3.70;100.00
4590;BME280;2307;48.448;9.216;2023-04-21T02:33:18;94996.81;;;3.62;100.00
4590;BME280;2307;48.448;9.216;2023-04-21T02:35:44;94992.63;;;3.74;100.00
4590;BME280;2307;48.448;9.216;2023-04-21T02:38:10;94991.81;;;3.87;100.00
4590;BME280;2307;48.448;9.216;2023-04-21T02:40:37;94983.72;;;4.01;100.00
4590;BME280;2307;48.448;9.216;2023-04-21T02:43:03;94983.50;;;4.09;100.00
4590;BME280;2307;48.448;9.216;2023-04-21T02:45:29;94982.09;;;4.13;100.00
4590;BME280;2307;48.448;9.216;2023-04-21T02:47:57;94965.59;;;4.19;100.00
4590;BME280;2307;48.448;9.216;2023-04-21T02:50:24;94968.22;;;4.06;100.00
4590;BME280;2307;48.448;9.216;2023-04-21T02:52:50;94966.41;;;4.13;100.00
4590;BME280;2307;48.448;9.216;2023-04-21T02:55:16;94971.63;;;4.13;100.00
4590;BME280;2307;48.448;9.216;2023-04-21T02:57:43;94977.00;;;4.32;100.00
4590;BME280;2307;48.448;9.216;2023-04-21T03:00:09;94975.97;;;4.46;100.00
4590;BME280;2307;48.448;9.216;2023-04-21T03:02:38;94972.75;;;4.44;100.00
4590;BME280;2307;48.448;9.216;2023-04-21T03:05:06;94977.63;;;4.34;100.00
4590;BME280;2307;48.448;9.216;2023-04-21T03:07:32;94979.28;;;4.21;100.00
4590;BME280;2307;48.448;9.216;2023-04-21T03:09:59;94969.97;;;4.32;100.00
4590;BME280;2307;48.448;9.216;2023-04-21T03:12:25;94976.00;;;4.33;100.00
4590;BME280;2307;48.448;9.216;2023-04-21T03:14:52;94979.81;;;4.37;100.00
4590;BME280;2307;48.448;9.216;2023-04-21T03:17:18;94975.53;;;4.49;100.00
4590;BME280;2307;48.448;9.216;2023-04-21T03:19:44;94978.13;;;4.55;100.00
4590;BME280;2307;48.448;9.216;2023-04-21T03:22:12;94973.09;;;4.54;100.00
4590;BME280;2307;48.448;9.216;2023-04-21T03:24:38;94979.94;;;4.55;100.00
4590;BME280;2307;48.448;9.216;2023-04-21T03:27:05;94971.31;;;4.48;100.00
4590;BME280;2307;48.448;9.216;2023-04-21T03:29:31;94972.34;;;4.47;100.00
4590;BME280;2307;48.448;9.216;2023-04-21T03:31:57;94976.75;;;4.53;100.00
4590;BME280;2307;48.448;9.216;2023-04-21T03:34:24;94982.81;;;4.47;100.00
4590;BME280;2307;48.448;9.216;2023-04-21T03:36:50;94977.50;;;4.60;100.00
4590;BME280;2307;48.448;9.216;2023-04-21T03:39:18;94977.34;;;4.55;100.00
4590;BME280;2307;48.448;9.216;2023-04-21T03:41:44;94970.50;;;4.54;100.00
4590;BME280;2307;48.448;9.216;2023-04-21T03:44:10;94975.78;;;4.41;100.00
4590;BME280;2307;48.448;9.216;2023-04-21T03:46:37;94967.94;;;4.41;100.00
4590;BME280;2307;48.448;9.216;2023-04-21T03:49:03;94966.72;;;4.43;100.00
4590;BME280;2307;48.448;9.216;2023-04-21T03:51:29;94969.13;;;4.38;100.00
4590;BME280;2307;48.448;9.216;2023-04-21T03:53:56;94972.34;;;4.47;100.00
4590;BME280;2307;48.448;9.216;2023-04-21T03:56:24;94964.09;;;4.50;100.00
4590;BME280;2307;48.448;9.216;2023-04-21T03:58:50;94969.47;;;4.61;100.00
4590;BME280;2307;48.448;9.216;2023-04-21T04:01:17;94965.47;;;4.59;100.00
4590;BME280;2307;48.448;9.216;2023-04-21T04:03:44;94961.22;;;4.58;100.00
4590;BME280;2307;48.448;9.216;2023-04-21T04:06:10;94969.50;;;4.55;100.00
4590;BME280;2307;48.448;9.216;2023-04-21T04:08:36;94965.66;;;4.51;100.00
4590;BME280;2307;48.448;9.216;2023-04-21T04:11:03;94972.09;;;4.55;100.00
4590;BME280;2307;48.448;9.216;2023-04-21T04:13:30;94968.91;;;4.53;100.00
4590;BME280;2307;48.448;9.216;2023-04-21T04:15:57;94968.50;;;4.56;100.00
4590;BME280;2307;48.448;9.216;2023-04-21T04:18:23;94966.88;;;4.55;100.00
4590;BME280;2307;48.448;9.216;2023-04-21T04:20:50;94973.03;;;4.73;100.00
4590;BME280;2307;48.448;9.216;2023-04-21T04:23:16;94965.47;;;4.59;100.00
4590;BME280;2307;48.448;9.216;2023-04-21T04:25:42;94965.66;;;4.51;100.00
4590;BME280;2307;48.448;9.216;2023-04-21T04:28:09;94954.47;;;4.44;100.00
4590;BME280;2307;48.448;9.216;2023-04-21T04:30:38;94956.66;;;4.47;100.00
4590;BME280;2307;48.448;9.216;2023-04-21T04:33:04;94956.41;;;4.55;100.00
4590;BME280;2307;48.448;9.216;2023-04-21T04:35:30;94954.63;;;4.49;100.00
4590;BME280;2307;48.448;9.216;2023-04-21T04:37:57;94961.09;;;4.46;100.00
4590;BME280;2307;48.448;9.216;2023-04-21T04:40:23;94963.19;;;4.18;100.00
4590;BME280;2307;48.448;9.216;2023-04-21T04:42:50;94970.44;;;4.09;100.00
4590;BME280;2307;48.448;9.216;2023-04-21T04:45:16;94982.88;;;4.20;100.00
4590;BME280;2307;48.448;9.216;2023-04-21T04:47:46;95004.25;;;3.91;100.00
4590;BME280;2307;48.448;9.216;2023-04-21T04:50:13;94994.63;;;3.72;100.00
4590;BME280;2307;48.448;9.216;2023-04-21T04:52:39;94995.00;;;3.95;100.00
4590;BME280;2307;48.448;9.216;2023-04-21T04:55:06;94982.94;;;3.88;100.00
4590;BME280;2307;48.448;9.216;2023-04-21T04:57:33;94972.06;;;4.04;100.00
4590;BME280;2307;48.448;9.216;2023-04-21T04:59:59;94973.44;;;4.19;100.00
4590;BME280;2307;48.448;9.216;2023-04-21T05:02:25;94976.44;;;4.23;100.00
4590;BME280;2307;48.448;9.216;2023-04-21T05:04:53;94986.88;;;4.29;100.00
4590;BME280;2307;48.448;9.216;2023-04-21T05:07:19;94996.53;;;4.29;100.00
4590;BME280;2307;48.448;9.216;2023-04-21T05:09:46;95002.19;;;4.06;100.00
4590;BME280;2307;48.448;9.216;2023-04-21T05:12:12;95013.09;;;3.64;100.00
4590;BME280;2307;48.448;9.216;2023-04-21T05:14:39;95009.28;;;3.86;100.00
4590;BME280;2307;48.448;9.216;2023-04-21T05:17:05;95009.06;;;4.01;100.00
4590;BME280;2307;48.448;9.216;2023-04-21T05:19:33;94998.81;;;4.06;100.00
4590;BME280;2307;48.448;9.216;2023-04-21T05:22:01;94997.75;;;4.20;100.00
4590;BME280;2307;48.448;9.216;2023-04-21T05:24:30;95000.53;;;4.32;100.00
4590;BME280;2307;48.448;9.216;2023-04-21T05:26:56;95002.53;;;4.43;100.00
4590;BME280;2307;48.448;9.216;2023-04-21T05:29:23;95000.50;;;4.45;100.00
4590;BME280;2307;48.448;9.216;2023-04-21T05:31:49;94981.75;;;4.54;100.00
4590;BME280;2307;48.448;9.216;2023-04-21T05:34:16;94971.97;;;4.37;100.00
4590;BME280;2307;48.448;9.216;2023-04-21T05:36:42;94963.47;;;4.48;100.00
4590;BME280;2307;48.448;9.216;2023-04-21T05:39:10;94968.59;;;4.74;100.00
4590;BME280;2307;48.448;9.216;2023-04-21T05:41:36;94978.63;;;4.77;100.00
4590;BME280;2307;48.448;9.216;2023-04-21T05:44:02;94969.72;;;4.91;100.00
4590;BME280;2307;48.448;9.216;2023-04-21T05:46:29;94968.09;;;4.90;100.00
4590;BME280;2307;48.448;9.216;2023-04-21T05:48:55;94959.72;;;4.81;100.00
4590;BME280;2307;48.448;9.216;2023-04-21T05:51:21;94979.72;;;4.63;100.00
4590;BME280;2307;48.448;9.216;2023-04-21T05:53:48;94991.28;;;4.36;100.00
4590;BME280;2307;48.448;9.216;2023-04-21T05:56:15;95000.38;;;4.13;100.00
4590;BME280;2307;48.448;9.216;2023-04-21T05:58:42;95004.63;;;4.01;100.00
4590;BME280;2307;48.448;9.216;2023-04-21T06:01:08;95010.66;;;4.08;100.00
4590;BME280;2307;48.448;9.216;2023-04-21T06:03:35;94994.28;;;4.39;100.00
4590;BME280;2307;48.448;9.216;2023-04-21T06:06:02;94990.81;;;4.52;100.00
4590;BME280;2307;48.448;9.216;2023-04-21T06:08:28;94975.97;;;4.46;100.00
4590;BME280;2307;48.448;9.216;2023-04-21T06:10:55;94974.66;;;4.68;100.00
4590;BME280;2307;48.448;9.216;2023-04-21T06:13:23;94990.88;;;4.83;100.00
4590;BME280;2307;48.448;9.216;2023-04-21T06:15:51;94998.16;;;4.81;100.00
4590;BME280;2307;48.448;9.216;2023-04-21T06:18:17;95002.34;;;4.82;100.00
4590;BME280;2307;48.448;9.216;2023-04-21T06:20:48;94994.41;;;4.57;100.00
4590;BME280;2307;48.448;9.216;2023-04-21T06:23:14;94982.66;;;4.79;100.00
4590;BME280;2307;48.448;9.216;2023-04-21T06:25:41;94981.50;;;4.69;100.00
4590;BME280;2307;48.448;9.216;2023-04-21T06:28:07;94979.53;;;4.58;100.00
4590;BME280;2307;48.448;9.216;2023-04-21T06:30:35;94985.53;;;4.65;100.00
4590;BME280;2307;48.448;9.216;2023-04-21T06:33:01;94987.94;;;4.66;100.00
4590;BME280;2307;48.448;9.216;2023-04-21T06:35:28;94992.44;;;4.53;100.00
4590;BME280;2307;48.448;9.216;2023-04-21T06:37:55;94991.59;;;4.59;100.00
4590;BME280;2307;48.448;9.216;2023-04-21T06:40:21;94991.78;;;4.57;100.00
4590;BME280;2307;48.448;9.216;2023-04-21T06:42:47;94995.25;;;4.51;100.00
4590;BME280;2307;48.448;9.216;2023-04-21T06:45:14;94991.38;;;4.60;100.00
4590;BME280;2307;48.448;9.216;2023-04-21T06:47:41;94998.06;;;4.50;100.00
4590;BME280;2307;48.448;9.216;2023-04-21T06:50:08;94988.38;;;4.57;100.00
4590;BME280;2307;48.448;9.216;2023-04-21T06:52:35;94995.41;;;4.63;100.00
4590;BME280;2307;48.448;9.216;2023-04-21T06:55:01;94992.59;;;4.58;100.00
4590;BME280;2307;48.448;9.216;2023-04-21T06:57:27;94991.78;;;4.64;100.00
4590;BME280;2307;48.448;9.216;2023-04-21T06:59:54;94979.53;;;4.58;100.00
4590;BME280;2307;48.448;9.216;2023-04-21T07:02:20;94988.97;;;4.65;100.00
4590;BME280;2307;48.448;9.216;2023-04-21T07:04:48;94982.69;;;4.73;100.00
4590;BME280;2307;48.448;9.216;2023-04-21T07:07:14;94981.84;;;4.79;100.00
4590;BME280;2307;48.448;9.216;2023-04-21T07:09:41;94982.69;;;4.73;100.00
4590;BME280;2307;48.448;9.216;2023-04-21T07:12:11;94987.91;;;4.73;100.00
4590;BME280;2307;48.448;9.216;2023-04-21T07:14:37;94986.47;;;4.77;100.00
4590;BME280;2307;48.448;9.216;2023-04-21T07:17:04;94987.03;;;4.86;100.00
4590;BME280;2307;48.448;9.216;2023-04-21T07:19:30;94992.66;;;4.89;100.00
4590;BME280;2307;48.448;9.216;2023-04-21T07:21:58;94987.00;;;4.92;100.00
4590;BME280;2307;48.448;9.216;2023-04-21T07:24:24;94993.75;;;5.13;100.00
4590;BME280;2307;48.448;9.216;2023-04-21T07:26:51;94997.75;;;5.15;100.00
4590;BME280;2307;48.448;9.216;2023-04-21T07:29:17;94986.91;;;5.12;100.00
4590;BME280;2307;48.448;9.216;2023-04-21T07:31:43;94987.94;;;5.04;100.00
4590;BME280;2307;48.448;9.216;2023-04-21T07:34:11;94987.59;;;5.01;100.00
4590;BME280;2307;48.448;9.216;2023-04-21T07:36:37;94992.63;;;4.96;100.00
4590;BME280;2307;48.448;9.216;2023-04-21T07:39:05;94994.22;;;5.03;100.00
4590;BME280;2307;48.448;9.216;2023-04-21T07:41:31;94995.31;;;5.14;100.00
4590;BME280;2307;48.448;9.216;2023-04-21T07:43:58;94984.81;;;5.20;100.00
4590;BME280;2307;48.448;9.216;2023-04-21T07:46:24;94989.09;;;5.15;100.00
4590;BME280;2307;48.448;9.216;2023-04-21T07:48:54;94978.75;;;5.26;100.00
4590;BME280;2307;48.448;9.216;2023-04-21T07:51:20;94976.72;;;5.28;100.00
4590;BME280;2307;48.448;9.216;2023-04-21T07:53:47;94979.06;;;5.36;100.00
4590;BME280;2307;48.448;9.216;2023-04-21T07:56:14;94984.50;;;5.42;100.00
4590;BME280;2307;48.448;9.216;2023-04-21T07:58:41;94972.13;;;5.49;100.00
4590;BME280;2307;48.448;9.216;2023-04-21T08:01:07;94976.41;;;5.68;100.00
4590;BME280;2307;48.448;9.216;2023-04-21T08:03:34;94978.19;;;5.74;100.00
4590;BME280;2307;48.448;9.216;2023-04-21T08:06:00;94982.31;;;5.88;100.00
4590;BME280;2307;48.448;9.216;2023-04-21T08:08:26;94984.81;;;6.01;100.00
4590;BME280;2307;48.448;9.216;2023-04-21T08:10:53;94976.47;;;6.11;100.00
4590;BME280;2307;48.448;9.216;2023-04-21T08:13:20;94984.09;;;6.12;100.00
4590;BME280;2307;48.448;9.216;2023-04-21T08:15:49;94988.13;;;6.15;100.00
4590;BME280;2307;48.448;9.216;2023-04-21T08:18:15;94985.63;;;6.20;100.00
4590;BME280;2307;48.448;9.216;2023-04-21T08:20:43;94982.81;;;6.21;100.00
4590;BME280;2307;48.448;9.216;2023-04-21T08:23:09;94987.19;;;6.27;100.00
4590;BME280;2307;48.448;9.216;2023-04-21T08:25:35;94982.16;;;6.26;100.00
4590;BME280;2307;48.448;9.216;2023-04-21T08:28:02;94986.75;;;6.49;100.00
4590;BME280;2307;48.448;9.216;2023-04-21T08:30:30;94975.34;;;6.73;100.00
4590;BME280;2307;48.448;9.216;2023-04-21T08:32:56;94975.25;;;6.98;100.00
4590;BME280;2307;48.448;9.216;2023-04-21T08:35:22;94967.97;;;7.11;100.00
4590;BME280;2307;48.448;9.216;2023-04-21T08:37:49;94958.09;;;7.25;100.00
4590;BME280;2307;48.448;9.216;2023-04-21T08:40:15;94966.22;;;6.93;100.00
4590;BME280;2307;48.448;9.216;2023-04-21T08:42:43;94955.47;;;6.95;100.00
4590;BME280;2307;48.448;9.216;2023-04-21T08:45:10;94942.16;;;7.08;100.00
4590;BME280;2307;48.448;9.216;2023-04-21T08:47:38;94949.94;;;7.03;100.00
4590;BME280;2307;48.448;9.216;2023-04-21T08:50:06;94943.31;;;7.12;100.00
4590;BME280;2307;48.448;9.216;2023-04-21T08:52:32;94944.50;;;7.16;100.00
4590;BME280;2307;48.448;9.216;2023-04-21T08:54:59;94954.00;;;7.29;100.00
4590;BME280;2307;48.448;9.216;2023-04-21T08:57:25;94959.16;;;7.35;100.00
4590;BME280;2307;48.448;9.216;2023-04-21T08:59:52;94956.19;;;7.43;100.00
4590;BME280;2307;48.448;9.216;2023-04-21T09:02:18;94960.09;;;7.53;100.00
4590;BME280;2307;48.448;9.216;2023-04-21T09:04:46;94961.25;;;7.57;100.00
4590;BME280;2307;48.448;9.216;2023-04-21T09:07:29;94958.97;;;7.72;100.00
4590;BME280;2307;48.448;9.216;2023-04-21T09:09:56;94966.53;;;7.80;100.00
4590;BME280;2307;48.448;9.216;2023-04-21T09:12:24;94956.56;;;7.93;100.00
4590;BME280;2307;48.448;9.216;2023-04-21T09:14:50;94950.63;;;8.10;100.00
4590;BME280;2307;48.448;9.216;2023-04-21T09:17:17;94949.13;;;8.25;100.00
4590;BME280;2307;48.448;9.216;2023-04-21T09:19:43;94957.22;;;8.47;100.00
4590;BME280;2307;48.448;9.216;2023-04-21T09:22:14;94953.88;;;8.63;100.00
4590;BME280;2307;48.448;9.216;2023-04-21T09:24:45;94953.88;;;8.75;100.00
4590;BME280;2307;48.448;9.216;2023-04-21T09:27:12;94953.41;;;8.78;100.00
4590;BME280;2307;48.448;9.216;2023-04-21T09:29:44;94953.91;;;8.91;100.00
4590;BME280;2307;48.448;9.216;2023-04-21T09:32:11;94946.00;;;8.91;100.00
4590;BME280;2307;48.448;9.216;2023-04-21T09:34:41;94945.41;;;9.01;100.00
4590;BME280;2307;48.448;9.216;2023-04-21T09:37:08;94928.59;;;9.19;100.00
4590;BME280;2307;48.448;9.216;2023-04-21T09:39:37;94931.16;;;9.30;100.00
4590;BME280;2307;48.448;9.216;2023-04-21T09:42:04;94928.53;;;9.30;100.00
4590;BME280;2307;48.448;9.216;2023-04-21T09:44:30;94937.25;;;9.47;100.00
4590;BME280;2307;48.448;9.216;2023-04-21T09:46:59;94936.31;;;9.53;100.00
4590;BME280;2307;48.448;9.216;2023-04-21T09:49:27;94941.81;;;9.69;100.00
4590;BME280;2307;48.448;9.216;2023-04-21T09:51:54;94946.69;;;9.77;100.00
4590;BME280;2307;48.448;9.216;2023-04-21T09:54:22;94947.31;;;9.84;100.00
4590;BME280;2307;48.448;9.216;2023-04-21T09:56:56;94941.81;;;10.02;100.00
4590;BME280;2307;48.448;9.216;2023-04-21T09:59:23;94945.53;;;10.06;100.00
4590;BME280;2307;48.448;9.216;2023-04-21T10:01:51;94941.47;;;10.15;100.00
4590;BME280;2307;48.448;9.216;2023-04-21T10:04:18;94943.59;;;10.35;100.00
4590;BME280;2307;48.448;9.216;2023-04-21T10:06:46;94941.81;;;10.40;100.00
4590;BME280;2307;48.448;9.216;2023-04-21T10:09:13;94936.81;;;10.60;100.00
4590;BME280;2307;48.448;9.216;2023-04-21T10:11:41;94941.72;;;10.74;100.00
4590;BME280;2307;48.448;9.216;2023-04-21T10:14:08;94939.31;;;10.94;100.00
4590;BME280;2307;48.448;9.216;2023-04-21T10:16:35;94942.81;;;10.99;100.00
4590;BME280;2307;48.448;9.216;2023-04-21T10:19:02;94942.22;;;11.19;100.00
4590;BME280;2307;48.448;9.216;2023-04-21T10:21:48;94942.06;;;11.31;100.00
4590;BME280;2307;48.448;9.216;2023-04-21T10:24:14;94934.88;;;11.53;100.00
4590;BME280;2307;48.448;9.216;2023-04-21T10:26:41;94941.19;;;11.79;100.00
4590;BME280;2307;48.448;9.216;2023-04-21T10:29:08;94932.44;;;12.10;100.00
4590;BME280;2307;48.448;9.216;2023-04-21T10:31:36;94931.47;;;12.31;100.00
4590;BME280;2307;48.448;9.216;2023-04-21T10:34:16;94933.22;;;12.57;100.00
4590;BME280;2307;48.448;9.216;2023-04-21T10:39:30;94930.16;;;12.91;100.00
4590;BME280;2307;48.448;9.216;2023-04-21T10:44:42;94932.44;;;13.39;100.00
4590;BME280;2307;48.448;9.216;2023-04-21T10:47:09;94922.38;;;13.41;100.00
4590;BME280;2307;48.448;9.216;2023-04-21T10:49:36;94922.41;;;13.66;100.00
4590;BME280;2307;48.448;9.216;2023-04-21T10:52:04;94919.72;;;13.87;100.00
4590;BME280;2307;48.448;9.216;2023-04-21T10:54:35;94917.06;;;13.97;100.00
4590;BME280;2307;48.448;9.216;2023-04-21T10:57:04;94909.88;;;14.02;100.00
4590;BME280;2307;48.448;9.216;2023-04-21T10:59:32;94908.25;;;14.31;100.00
4590;BME280;2307;48.448;9.216;2023-04-21T11:02:01;94908.47;;;14.55;100.00
4590;BME280;2307;48.448;9.216;2023-04-21T11:04:27;94912.44;;;14.68;100.00
4590;BME280;2307;48.448;9.216;2023-04-21T11:07:03;94905.16;;;14.88;100.00
4590;BME280;2307;48.448;9.216;2023-04-21T11:09:30;94900.28;;;15.01;100.00
4590;BME280;2307;48.448;9.216;2023-04-21T11:11:56;94900.25;;;15.11;100.00
4590;BME280;2307;48.448;9.216;2023-04-21T11:14:23;94891.88;;;15.32;100.00
4590;BME280;2307;48.448;9.216;2023-04-21T11:16:49;94890.91;;;15.57;100.00
4590;BME280;2307;48.448;9.216;2023-04-21T11:19:17;94897.25;;;15.66;100.00
4590;BME280;2307;48.448;9.216;2023-04-21T11:21:47;94897.28;;;15.61;100.00
4590;BME280;2307;48.448;9.216;2023-04-21T11:24:13;94900.44;;;15.68;97.56
4590;BME280;2307;48.448;9.216;2023-04-21T11:26:40;94890.53;;;15.74;100.00
4590;BME280;2307;48.448;9.216;2023-04-21T11:29:09;94895.53;;;15.80;100.00
4590;BME280;2307;48.448;9.216;2023-04-21T11:31:36;94891.03;;;16.05;100.00
4590;BME280;2307;48.448;9.216;2023-04-21T11:34:04;94890.59;;;16.26;100.00
4590;BME280;2307;48.448;9.216;2023-04-21T11:36:32;94879.47;;;16.43;100.00
4590;BME280;2307;48.448;9.216;2023-04-21T11:39:02;94889.44;;;16.61;100.00
4590;BME280;2307;48.448;9.216;2023-04-21T11:41:32;94891.25;;;16.66;100.00
4590;BME280;2307;48.448;9.216;2023-04-21T11:43:59;94891.13;;;16.76;100.00
4590;BME280;2307;48.448;9.216;2023-04-21T11:46:26;94882.13;;;16.90;100.00
4590;BME280;2307;48.448;9.216;2023-04-21T11:48:58;94880.00;;;16.92;100.00
4590;BME280;2307;48.448;9.216;2023-04-21T11:51:25;94880.66;;;16.61;100.00
4590;BME280;2307;48.448;9.216;2023-04-21T11:53:53;94870.09;;;16.74;99.32
4590;BME280;2307;48.448;9.216;2023-04-21T11:56:20;94875.28;;;16.84;100.00
4590;BME280;2307;48.448;9.216;2023-04-21T11:58:48;94881.50;;;16.98;100.00
4590;BME280;2307;48.448;9.216;2023-04-21T12:01:15;94871.28;;;17.06;100.00
4590;BME280;2307;48.448;9.216;2023-04-21T12:03:41;94874.88;;;17.15;100.00
4590;BME280;2307;48.448;9.216;2023-04-21T12:06:08;94872.84;;;17.25;95.74
4590;BME280;2307;48.448;9.216;2023-04-21T12:08:34;94870.00;;;17.22;96.52
4590;BME280;2307;48.448;9.216;2023-04-21T12:11:02;94876.19;;;17.36;91.81
4590;BME280;2307;48.448;9.216;2023-04-21T12:13:28;94865.22;;;17.37;96.87
4590;BME280;2307;48.448;9.216;2023-04-21T12:15:56;94862.69;;;17.46;94.29
4590;BME280;2307;48.448;9.216;2023-04-21T12:18:26;94865.63;;;17.63;98.42
4590;BME280;2307;48.448;9.216;2023-04-21T12:20:52;94859.53;;;17.76;94.19
4590;BME280;2307;48.448;9.216;2023-04-21T12:23:18;94863.19;;;17.99;91.87
4590;BME280;2307;48.448;9.216;2023-04-21T12:25:45;94855.75;;;17.96;92.68
4590;BME280;2307;48.448;9.216;2023-04-21T12:28:14;94856.66;;;17.91;91.04
4590;BME280;2307;48.448;9.216;2023-04-21T12:30:40;94852.91;;;18.06;89.51
4590;BME280;2307;48.448;9.216;2023-04-21T12:33:07;94855.13;;;18.31;88.59
4590;BME280;2307;48.448;9.216;2023-04-21T12:35:33;94853.97;;;18.51;79.61
4590;BME280;2307;48.448;9.216;2023-04-21T12:38:00;94856.34;;;18.66;84.49
4590;BME280;2307;48.448;9.216;2023-04-21T12:40:26;94850.19;;;18.79;78.15
4590;BME280;2307;48.448;9.216;2023-04-21T12:42:52;94848.09;;;18.90;78.80
4590;BME280;2307;48.448;9.216;2023-04-21T12:45:20;94851.34;;;19.00;74.19
4590;BME280;2307;48.448;9.216;2023-04-21T12:47:46;94852.84;;;19.29;63.93
4590;BME280;2307;48.448;9.216;2023-04-21T12:50:13;94847.88;;;19.49;60.67
4590;BME280;2307;48.448;9.216;2023-04-21T12:52:40;94852.25;;;19.32;65.19
4590;BME280;2307;48.448;9.216;2023-04-21T12:55:07;94847.06;;;19.49;68.06
4590;BME280;2307;48.448;9.216;2023-04-21T12:57:33;94840.13;;;19.92;63.92
4590;BME280;2307;48.448;9.216;2023-04-21T13:00:00;94846.28;;;19.93;55.49
4590;BME280;2307;48.448;9.216;2023-04-21T13:02:27;94842.31;;;19.46;59.85
4590;BME280;2307;48.448;9.216;2023-04-21T13:04:55;94829.50;;;19.56;51.31
4590;BME280;2307;48.448;9.216;2023-04-21T13:07:21;94826.72;;;19.70;49.79
4590;BME280;2307;48.448;9.216;2023-04-21T13:09:50;94818.69;;;19.70;46.06
4590;BME280;2307;48.448;9.216;2023-04-21T13:12:17;94828.50;;;19.75;44.29
4590;BME280;2307;48.448;9.216;2023-04-21T13:14:43;94835.38;;;19.89;43.86
4590;BME280;2307;48.448;9.216;2023-04-21T13:17:09;94833.72;;;20.02;43.75
4590;BME280;2307;48.448;9.216;2023-04-21T13:19:37;94831.84;;;20.33;42.65
4590;BME280;2307;48.448;9.216;2023-04-21T13:22:04;94833.38;;;20.26;46.96
4590;BME280;2307;48.448;9.216;2023-04-21T13:24:30;94832.38;;;20.44;43.13